sensor_id;sensor_type;location;lat;lon;timestamp;temperature;humidity
4604;DHT22;2314;48.272;11.562;2023-09-12T00:00:42;16.10;99.90
4604;DHT22;2314;48.272;11.562;2023-09-12T00:03:09;16.00;99.90
4604;DHT22;2314;48.272;11.562;2023-09-12T00:05:36;16.00;99.90
4604;DHT22;2314;48.272;11.562;2023-09-12T00:08:05;16.00;99.90
4604;DHT22;2314;48.272;11.562;2023-09-12T00:10:32;16.00;99.90
4604;DHT22;2314;48.272;11.562;2023-09-12T00:12:59;15.90;99.90
4604;DHT22;2314;48.272;11.562;2023-09-12T00:15:28;15.90;99.90
4604;DHT22;2314;48.272;11.562;2023-09-12T00:17:55;15.90;99.90
4604;DHT22;2314;48.272;11.562;2023-09-12T00:20:22;15.90;99.90
4604;DHT22;2314;48.272;11.562;2023-09-12T00:22:49;15.90;99.90
4604;DHT22;2314;48.272;11.562;2023-09-12T00:25:20;15.90;99.90
4604;DHT22;2314;48.272;11.562;2023-09-12T00:27:47;15.80;99.90
4604;DHT22;2314;48.272;11.562;2023-09-12T00:30:14;15.80;99.90
4604;DHT22;2314;48.272;11.562;2023-09-12T00:32:41;15.80;99.90
4604;DHT22;2314;48.272;11.562;2023-09-12T00:35:08;15.80;99.90
4604;DHT22;2314;48.272;11.562;2023-09-12T00:37:35;15.70;99.90
4604;DHT22;2314;48.272;11.562;2023-09-12T00:40:03;15.70;99.90
4604;DHT22;2314;48.272;11.562;2023-09-12T00:42:32;15.60;99.90
4604;DHT22;2314;48.272;11.562;2023-09-12T00:44:59;15.60;99.90
4604;DHT22;2314;48.272;11.562;2023-09-12T00:47:27;15.60;99.90
4604;DHT22;2314;48.272;11.562;2023-09-12T00:49:56;15.60;99.90
4604;DHT22;2314;48.272;11.562;2023-09-12T00:52:25;15.50;99.90
4604;DHT22;2314;48.272;11.562;2023-09-12T00:54:53;15.50;99.90
4604;DHT22;2314;48.272;11.562;2023-09-12T00:57:21;15.50;99.90
4604;DHT22;2314;48.272;11.562;2023-09-12T00:59:53;15.50;99.90
4604;DHT22;2314;48.272;11.562;2023-09-12T01:02:21;15.40;99.90
4604;DHT22;2314;48.272;11.562;2023-09-12T01:04:48;15.40;99.90
4604;DHT22;2314;48.272;11.562;2023-09-12T01:07:16;15.40;99.90
4604;DHT22;2314;48.272;11.562;2023-09-12T01:09:44;15.30;99.90
4604;DHT22;2314;48.272;11.562;2023-09-12T01:12:11;15.30;99.90
4604;DHT22;2314;48.272;11.562;2023-09-12T01:14:40;15.30;99.90
4604;DHT22;2314;48.272;11.562;2023-09-12T01:17:08;15.30;99.90
4604;DHT22;2314;48.272;11.562;2023-09-12T01:19:36;15.20;99.90
4604;DHT22;2314;48.272;11.562;2023-09-12T01:22:29;15.20;99.90
4604;DHT22;2314;48.272;11.562;2023-09-12T01:25:12;15.20;99.90
4604;DHT22;2314;48.272;11.562;2023-09-12T01:28:04;15.20;99.90
4604;DHT22;2314;48.272;11.562;2023-09-12T01:30:32;15.20;99.90
4604;DHT22;2314;48.272;11.562;2023-09-12T01:33:02;15.20;99.90
4604;DHT22;2314;48.272;11.562;2023-09-12T01:35:29;15.20;99.90
4604;DHT22;2314;48.272;11.562;2023-09-12T01:37:56;15.10;99.90
4604;DHT22;2314;48.272;11.562;2023-09-12T01:40:33;15.10;99.90
4604;DHT22;2314;48.272;11.562;2023-09-12T01:43:05;15.10;99.90
4604;DHT22;2314;48.272;11.562;2023-09-12T01:45:33;15.10;99.90
4604;DHT22;2314;48.272;11.562;2023-09-12T01:48:04;15.00;99.90
4604;DHT22;2314;48.272;11.562;2023-09-12T01:50:31;15.00;99.90
4604;DHT22;2314;48.272;11.562;2023-09-12T01:52:59;14.90;99.90
4604;DHT22;2314;48.272;11.562;2023-09-12T01:55:27;15.00;99.90
4604;DHT22;2314;48.272;11.562;2023-09-12T01:57:54;14.90;99.90
4604;DHT22;2314;48.272;11.562;2023-09-12T02:00:23;14.90;99.90
4604;DHT22;2314;48.272;11.562;2023-09-12T02:02:50;14.90;99.90
4604;DHT22;2314;48.272;11.562;2023-09-12T02:05:19;14.90;99.90
4604;DHT22;2314;48.272;11.562;2023-09-12T02:07:47;14.80;99.90
4604;DHT22;2314;48.272;11.562;2023-09-12T02:10:15;14.80;99.90
4604;DHT22;2314;48.272;11.562;2023-09-12T02:12:42;14.80;99.90
4604;DHT22;2314;48.272;11.562;2023-09-12T02:15:09;14.80;99.90
4604;DHT22;2314;48.272;11.562;2023-09-12T02:17:39;14.80;99.90
4604;DHT22;2314;48.272;11.562;2023-09-12T02:20:07;14.80;99.90
4604;DHT22;2314;48.272;11.562;2023-09-12T02:22:35;14.70;99.90
4604;DHT22;2314;48.272;11.562;2023-09-12T02:25:03;14.70;99.90
4604;DHT22;2314;48.272;11.562;2023-09-12T02:27:31;14.70;99.90
4604;DHT22;2314;48.272;11.562;2023-09-12T02:29:58;14.70;99.90
4604;DHT22;2314;48.272;11.562;2023-09-12T02:32:25;14.70;99.90
4604;DHT22;2314;48.272;11.562;2023-09-12T02:34:53;14.70;99.90
4604;DHT22;2314;48.272;11.562;2023-09-12T02:37:22;14.70;99.90
4604;DHT22;2314;48.272;11.562;2023-09-12T02:39:49;14.70;99.90
4604;DHT22;2314;48.272;11.562;2023-09-12T02:42:16;14.70;99.90
4604;DHT22;2314;48.272;11.562;2023-09-12T02:44:43;14.70;99.90
4604;DHT22;2314;48.272;11.562;2023-09-12T02:47:10;14.70;99.90
4604;DHT22;2314;48.272;11.562;2023-09-12T02:49:37;14.70;99.90
4604;DHT22;2314;48.272;11.562;2023-09-12T02:52:06;14.70;99.90
4604;DHT22;2314;48.272;11.562;2023-09-12T02:54:32;14.60;99.90
4604;DHT22;2314;48.272;11.562;2023-09-12T02:56:59;14.60;99.90
4604;DHT22;2314;48.272;11.562;2023-09-12T02:59:26;14.60;99.90
4604;DHT22;2314;48.272;11.562;2023-09-12T03:01:53;14.60;99.90
4604;DHT22;2314;48.272;11.562;2023-09-12T03:04:20;14.60;99.90
4604;DHT22;2314;48.272;11.562;2023-09-12T03:06:47;14.60;99.90
4604;DHT22;2314;48.272;11.562;2023-09-12T03:09:15;14.60;99.90
4604;DHT22;2314;48.272;11.562;2023-09-12T03:11:45;14.60;99.90
4604;DHT22;2314;48.272;11.562;2023-09-12T03:14:12;14.60;99.90
4604;DHT22;2314;48.272;11.562;2023-09-12T03:16:38;14.60;99.90
4604;DHT22;2314;48.272;11.562;2023-09-12T03:19:05;14.50;99.90
4604;DHT22;2314;48.272;11.562;2023-09-12T03:21:32;14.50;99.90
4604;DHT22;2314;48.272;11.562;2023-09-12T03:23:59;14.50;99.90
4604;DHT22;2314;48.272;11.562;2023-09-12T03:26:28;14.50;99.90
4604;DHT22;2314;48.272;11.562;2023-09-12T03:28:55;14.50;99.90
4604;DHT22;2314;48.272;11.562;2023-09-12T03:31:22;14.50;99.90
4604;DHT22;2314;48.272;11.562;2023-09-12T03:33:49;14.50;99.90
4604;DHT22;2314;48.272;11.562;2023-09-12T03:36:16;14.50;99.90
4604;DHT22;2314;48.272;11.562;2023-09-12T03:38:43;14.50;99.90
4604;DHT22;2314;48.272;11.562;2023-09-12T03:41:10;14.50;99.90
4604;DHT22;2314;48.272;11.562;2023-09-12T03:43:39;14.40;99.90
4604;DHT22;2314;48.272;11.562;2023-09-12T03:46:06;14.40;99.90
4604;DHT22;2314;48.272;11.562;2023-09-12T03:48:33;14.40;99.90
4604;DHT22;2314;48.272;11.562;2023-09-12T03:51:02;14.40;99.90
4604;DHT22;2314;48.272;11.562;2023-09-12T03:53:30;14.30;99.90
4604;DHT22;2314;48.272;11.562;2023-09-12T03:55:57;14.30;99.90
4604;DHT22;2314;48.272;11.562;2023-09-12T03:58:25;14.20;99.90
4604;DHT22;2314;48.272;11.562;2023-09-12T04:00:53;14.20;99.90
4604;DHT22;2314;48.272;11.562;2023-09-12T04:03:20;14.20;99.90
4604;DHT22;2314;48.272;11.562;2023-09-12T04:05:47;14.20;99.90
4604;DHT22;2314;48.272;11.562;2023-09-12T04:08:15;14.10;99.90
4604;DHT22;2314;48.272;11.562;2023-09-12T04:10:42;14.20;99.90
4604;DHT22;2314;48.272;11.562;2023-09-12T04:13:09;14.10;99.90
4604;DHT22;2314;48.272;11.562;2023-09-12T04:15:36;14.10;99.90
4604;DHT22;2314;48.272;11.562;2023-09-12T04:18:05;14.10;99.90
4604;DHT22;2314;48.272;11.562;2023-09-12T04:20:33;14.10;99.90
4604;DHT22;2314;48.272;11.562;2023-09-12T04:23:01;14.10;99.90
4604;DHT22;2314;48.272;11.562;2023-09-12T04:25:29;14.10;99.90
4604;DHT22;2314;48.272;11.562;2023-09-12T04:27:56;14.00;99.90
4604;DHT22;2314;48.272;11.562;2023-09-12T04:30:23;14.00;99.90
4604;DHT22;2314;48.272;11.562;2023-09-12T04:32:50;14.00;99.90
4604;DHT22;2314;48.272;11.562;2023-09-12T04:35:18;14.00;99.90
4604;DHT22;2314;48.272;11.562;2023-09-12T04:37:46;14.00;99.90
4604;DHT22;2314;48.272;11.562;2023-09-12T04:40:13;14.00;99.90
4604;DHT22;2314;48.272;11.562;2023-09-12T04:42:41;14.00;99.90
4604;DHT22;2314;48.272;11.562;2023-09-12T04:45:08;14.00;99.90
4604;DHT22;2314;48.272;11.562;2023-09-12T04:47:36;14.00;99.90
4604;DHT22;2314;48.272;11.562;2023-09-12T04:50:03;14.00;99.90
4604;DHT22;2314;48.272;11.562;2023-09-12T04:52:32;14.00;99.90
4604;DHT22;2314;48.272;11.562;2023-09-12T04:54:59;14.00;99.90
4604;DHT22;2314;48.272;11.562;2023-09-12T04:57:26;14.00;99.90
4604;DHT22;2314;48.272;11.562;2023-09-12T04:59:56;14.00;99.90
4604;DHT22;2314;48.272;11.562;2023-09-12T05:02:23;14.00;99.90
4604;DHT22;2314;48.272;11.562;2023-09-12T05:04:51;14.00;99.90
4604;DHT22;2314;48.272;11.562;2023-09-12T05:07:18;14.00;99.90
4604;DHT22;2314;48.272;11.562;2023-09-12T05:09:46;14.00;99.90
4604;DHT22;2314;48.272;11.562;2023-09-12T05:12:13;14.00;99.90
4604;DHT22;2314;48.272;11.562;2023-09-12T05:14:40;14.10;99.90
4604;DHT22;2314;48.272;11.562;2023-09-12T05:17:07;14.10;99.90
4604;DHT22;2314;48.272;11.562;2023-09-12T05:19:34;14.10;99.90
4604;DHT22;2314;48.272;11.562;2023-09-12T05:22:01;14.10;99.90
4604;DHT22;2314;48.272;11.562;2023-09-12T05:24:28;14.10;99.90
4604;DHT22;2314;48.272;11.562;2023-09-12T05:26:56;14.10;99.90
4604;DHT22;2314;48.272;11.562;2023-09-12T05:29:23;14.10;99.90
4604;DHT22;2314;48.272;11.562;2023-09-12T05:31:50;14.20;99.90
4604;DHT22;2314;48.272;11.562;2023-09-12T05:34:17;14.20;99.90
4604;DHT22;2314;48.272;11.562;2023-09-12T05:36:44;14.30;99.90
4604;DHT22;2314;48.272;11.562;2023-09-12T05:39:11;14.40;99.90
4604;DHT22;2314;48.272;11.562;2023-09-12T05:41:39;14.40;99.90
4604;DHT22;2314;48.272;11.562;2023-09-12T05:44:07;14.50;99.90
4604;DHT22;2314;48.272;11.562;2023-09-12T05:46:35;14.50;99.90
4604;DHT22;2314;48.272;11.562;2023-09-12T05:49:02;14.50;99.90
4604;DHT22;2314;48.272;11.562;2023-09-12T05:51:29;14.60;99.90
4604;DHT22;2314;48.272;11.562;2023-09-12T05:53:56;14.60;99.90
4604;DHT22;2314;48.272;11.562;2023-09-12T05:56:23;14.70;99.90
4604;DHT22;2314;48.272;11.562;2023-09-12T05:58:50;14.80;99.90
4604;DHT22;2314;48.272;11.562;2023-09-12T06:01:19;14.90;99.90
4604;DHT22;2314;48.272;11.562;2023-09-12T06:03:46;15.00;99.90
4604;DHT22;2314;48.272;11.562;2023-09-12T06:06:13;15.10;99.90
4604;DHT22;2314;48.272;11.562;2023-09-12T06:08:40;15.20;99.90
4604;DHT22;2314;48.272;11.562;2023-09-12T06:11:07;15.30;99.90
4604;DHT22;2314;48.272;11.562;2023-09-12T06:13:34;15.40;99.90
4604;DHT22;2314;48.272;11.562;2023-09-12T06:16:03;15.50;99.90
4604;DHT22;2314;48.272;11.562;2023-09-12T06:18:32;15.60;99.90
4604;DHT22;2314;48.272;11.562;2023-09-12T06:21:00;15.70;99.90
4604;DHT22;2314;48.272;11.562;2023-09-12T06:23:29;15.80;99.90
4604;DHT22;2314;48.272;11.562;2023-09-12T06:25:56;15.90;99.90
4604;DHT22;2314;48.272;11.562;2023-09-12T06:28:28;16.00;99.90
4604;DHT22;2314;48.272;11.562;2023-09-12T06:30:56;16.10;99.90
4604;DHT22;2314;48.272;11.562;2023-09-12T06:33:24;16.20;99.90
4604;DHT22;2314;48.272;11.562;2023-09-12T06:35:53;16.30;99.90
4604;DHT22;2314;48.272;11.562;2023-09-12T06:38:21;16.40;99.90
4604;DHT22;2314;48.272;11.562;2023-09-12T06:40:48;16.50;99.90
4604;DHT22;2314;48.272;11.562;2023-09-12T06:43:15;16.60;99.90
4604;DHT22;2314;48.272;11.562;2023-09-12T06:45:43;16.70;99.90
4604;DHT22;2314;48.272;11.562;2023-09-12T06:48:10;16.80;99.90
4604;DHT22;2314;48.272;11.562;2023-09-12T06:50:37;16.90;99.90
4604;DHT22;2314;48.272;11.562;2023-09-12T06:53:05;17.00;99.90
4604;DHT22;2314;48.272;11.562;2023-09-12T06:55:33;17.10;99.90
4604;DHT22;2314;48.272;11.562;2023-09-12T06:58:00;17.20;99.90
4604;DHT22;2314;48.272;11.562;2023-09-12T07:00:28;17.30;99.90
4604;DHT22;2314;48.272;11.562;2023-09-12T07:02:55;17.50;99.90
4604;DHT22;2314;48.272;11.562;2023-09-12T07:05:22;17.60;99.90
4604;DHT22;2314;48.272;11.562;2023-09-12T07:07:49;17.80;99.90
4604;DHT22;2314;48.272;11.562;2023-09-12T07:10:17;17.90;99.90
4604;DHT22;2314;48.272;11.562;2023-09-12T07:12:44;18.00;99.90
4604;DHT22;2314;48.272;11.562;2023-09-12T07:15:11;18.20;99.90
4604;DHT22;2314;48.272;11.562;2023-09-12T07:17:38;18.20;99.90
4604;DHT22;2314;48.272;11.562;2023-09-12T07:20:07;18.30;99.90
4604;DHT22;2314;48.272;11.562;2023-09-12T07:22:37;18.40;99.90
4604;DHT22;2314;48.272;11.562;2023-09-12T07:25:06;18.60;99.90
4604;DHT22;2314;48.272;11.562;2023-09-12T07:27:36;18.70;99.90
4604;DHT22;2314;48.272;11.562;2023-09-12T07:30:04;18.80;99.90
4604;DHT22;2314;48.272;11.562;2023-09-12T07:32:32;18.90;99.90
4604;DHT22;2314;48.272;11.562;2023-09-12T07:34:59;19.00;99.90
4604;DHT22;2314;48.272;11.562;2023-09-12T07:37:26;19.10;99.90
4604;DHT22;2314;48.272;11.562;2023-09-12T07:39:53;19.30;99.90
4604;DHT22;2314;48.272;11.562;2023-09-12T07:42:22;19.50;99.90
4604;DHT22;2314;48.272;11.562;2023-09-12T07:44:50;19.60;99.90
4604;DHT22;2314;48.272;11.562;2023-09-12T07:47:18;19.70;99.90
4604;DHT22;2314;48.272;11.562;2023-09-12T07:49:44;19.80;99.90
4604;DHT22;2314;48.272;11.562;2023-09-12T07:52:11;20.00;99.90
4604;DHT22;2314;48.272;11.562;2023-09-12T07:54:38;20.10;99.90
4604;DHT22;2314;48.272;11.562;2023-09-12T07:57:05;20.20;99.90
4604;DHT22;2314;48.272;11.562;2023-09-12T07:59:33;20.40;99.90
4604;DHT22;2314;48.272;11.562;2023-09-12T08:02:02;20.60;99.90
4604;DHT22;2314;48.272;11.562;2023-09-12T08:04:29;20.70;99.90
4604;DHT22;2314;48.272;11.562;2023-09-12T08:06:56;20.80;99.90
4604;DHT22;2314;48.272;11.562;2023-09-12T08:09:23;20.90;99.90
4604;DHT22;2314;48.272;11.562;2023-09-12T08:11:50;21.10;99.90
4604;DHT22;2314;48.272;11.562;2023-09-12T08:14:17;21.20;99.90
4604;DHT22;2314;48.272;11.562;2023-09-12T08:16:46;21.30;99.90
4604;DHT22;2314;48.272;11.562;2023-09-12T08:19:15;21.40;99.90
4604;DHT22;2314;48.272;11.562;2023-09-12T08:21:42;21.50;99.90
4604;DHT22;2314;48.272;11.562;2023-09-12T08:24:09;21.70;99.90
4604;DHT22;2314;48.272;11.562;2023-09-12T08:26:35;21.80;99.90
4604;DHT22;2314;48.272;11.562;2023-09-12T08:29:02;22.00;99.90
4604;DHT22;2314;48.272;11.562;2023-09-12T08:31:29;22.20;99.90
4604;DHT22;2314;48.272;11.562;2023-09-12T08:33:57;22.40;99.90
4604;DHT22;2314;48.272;11.562;2023-09-12T08:36:25;22.70;99.90
4604;DHT22;2314;48.272;11.562;2023-09-12T08:38:52;23.10;99.90
4604;DHT22;2314;48.272;11.562;2023-09-12T08:41:19;23.60;99.90
4604;DHT22;2314;48.272;11.562;2023-09-12T08:43:47;24.80;99.90
4604;DHT22;2314;48.272;11.562;2023-09-12T08:46:15;26.60;99.90
4604;DHT22;2314;48.272;11.562;2023-09-12T08:48:43;28.40;99.90
4604;DHT22;2314;48.272;11.562;2023-09-12T08:51:11;29.80;99.90
4604;DHT22;2314;48.272;11.562;2023-09-12T08:53:40;31.60;99.90
4604;DHT22;2314;48.272;11.562;2023-09-12T08:56:08;33.00;96.90
4604;DHT22;2314;48.272;11.562;2023-09-12T08:58:36;34.10;91.60
4604;DHT22;2314;48.272;11.562;2023-09-12T09:01:03;35.20;87.40
4604;DHT22;2314;48.272;11.562;2023-09-12T09:03:33;35.80;81.40
4604;DHT22;2314;48.272;11.562;2023-09-12T09:06:01;36.20;82.60
4604;DHT22;2314;48.272;11.562;2023-09-12T09:08:29;36.40;79.60
4604;DHT22;2314;48.272;11.562;2023-09-12T09:10:59;36.60;77.70
4604;DHT22;2314;48.272;11.562;2023-09-12T09:13:28;36.70;71.40
4604;DHT22;2314;48.272;11.562;2023-09-12T09:16:13;36.50;72.80
4604;DHT22;2314;48.272;11.562;2023-09-12T09:18:51;36.40;70.00
4604;DHT22;2314;48.272;11.562;2023-09-12T09:21:22;36.10;70.60
4604;DHT22;2314;48.272;11.562;2023-09-12T09:23:51;35.70;76.00
4604;DHT22;2314;48.272;11.562;2023-09-12T09:26:22;35.10;74.00
4604;DHT22;2314;48.272;11.562;2023-09-12T09:29:06;35.00;78.40
4604;DHT22;2314;48.272;11.562;2023-09-12T09:31:34;35.40;75.80
4604;DHT22;2314;48.272;11.562;2023-09-12T09:34:03;35.80;75.60
4604;DHT22;2314;48.272;11.562;2023-09-12T09:36:31;36.10;64.70
4604;DHT22;2314;48.272;11.562;2023-09-12T09:38:58;36.50;68.60
4604;DHT22;2314;48.272;11.562;2023-09-12T09:41:27;36.70;71.80
4604;DHT22;2314;48.272;11.562;2023-09-12T09:43:54;37.00;67.90
4604;DHT22;2314;48.272;11.562;2023-09-12T09:46:21;37.10;67.70
4604;DHT22;2314;48.272;11.562;2023-09-12T09:48:49;37.30;65.80
4604;DHT22;2314;48.272;11.562;2023-09-12T09:51:17;37.60;65.40
4604;DHT22;2314;48.272;11.562;2023-09-12T09:53:44;37.60;59.60
4604;DHT22;2314;48.272;11.562;2023-09-12T09:56:13;37.30;56.10
4604;DHT22;2314;48.272;11.562;2023-09-12T09:58:49;36.80;62.80
4604;DHT22;2314;48.272;11.562;2023-09-12T10:01:19;36.60;65.80
4604;DHT22;2314;48.272;11.562;2023-09-12T10:03:47;36.30;64.30
4604;DHT22;2314;48.272;11.562;2023-09-12T10:06:16;36.20;71.20
4604;DHT22;2314;48.272;11.562;2023-09-12T10:08:44;35.90;62.60
4604;DHT22;2314;48.272;11.562;2023-09-12T10:11:14;35.70;68.80
4604;DHT22;2314;48.272;11.562;2023-09-12T10:13:46;35.40;69.40
4604;DHT22;2314;48.272;11.562;2023-09-12T10:16:18;35.30;67.90
4604;DHT22;2314;48.272;11.562;2023-09-12T10:18:56;35.50;68.20
4604;DHT22;2314;48.272;11.562;2023-09-12T10:21:30;35.20;71.90
4604;DHT22;2314;48.272;11.562;2023-09-12T10:23:59;35.10;68.20
4604;DHT22;2314;48.272;11.562;2023-09-12T10:26:26;35.00;64.90
4604;DHT22;2314;48.272;11.562;2023-09-12T10:28:54;35.00;68.50
4604;DHT22;2314;48.272;11.562;2023-09-12T10:31:24;35.00;69.00
4604;DHT22;2314;48.272;11.562;2023-09-12T10:33:51;35.10;58.80
4604;DHT22;2314;48.272;11.562;2023-09-12T10:36:19;34.90;62.70
4604;DHT22;2314;48.272;11.562;2023-09-12T10:38:48;34.70;66.40
4604;DHT22;2314;48.272;11.562;2023-09-12T10:41:16;34.50;71.30
4604;DHT22;2314;48.272;11.562;2023-09-12T10:43:44;34.30;64.80
4604;DHT22;2314;48.272;11.562;2023-09-12T10:46:15;34.10;66.70
4604;DHT22;2314;48.272;11.562;2023-09-12T10:48:44;33.90;68.00
4604;DHT22;2314;48.272;11.562;2023-09-12T10:51:12;33.80;67.10
4604;DHT22;2314;48.272;11.562;2023-09-12T10:53:45;33.90;58.00
4604;DHT22;2314;48.272;11.562;2023-09-12T10:56:16;34.00;66.20
4604;DHT22;2314;48.272;11.562;2023-09-12T10:59:09;34.00;63.90
4604;DHT22;2314;48.272;11.562;2023-09-12T11:01:39;33.90;61.00
4604;DHT22;2314;48.272;11.562;2023-09-12T11:07:31;34.10;66.00
4604;DHT22;2314;48.272;11.562;2023-09-12T11:10:19;33.80;64.70
4604;DHT22;2314;48.272;11.562;2023-09-12T11:12:49;33.60;60.00
4604;DHT22;2314;48.272;11.562;2023-09-12T11:15:17;33.70;64.20
4604;DHT22;2314;48.272;11.562;2023-09-12T11:17:45;33.70;62.30
4604;DHT22;2314;48.272;11.562;2023-09-12T11:20:15;33.90;67.90
4604;DHT22;2314;48.272;11.562;2023-09-12T11:22:44;34.10;65.90
4604;DHT22;2314;48.272;11.562;2023-09-12T11:25:22;34.00;61.70
4604;DHT22;2314;48.272;11.562;2023-09-12T11:28:04;33.90;65.60
4604;DHT22;2314;48.272;11.562;2023-09-12T11:30:31;33.60;67.00
4604;DHT22;2314;48.272;11.562;2023-09-12T11:33:03;33.50;62.70
4604;DHT22;2314;48.272;11.562;2023-09-12T11:35:37;33.20;64.70
4604;DHT22;2314;48.272;11.562;2023-09-12T11:38:09;32.90;65.50
4604;DHT22;2314;48.272;11.562;2023-09-12T11:40:44;32.80;65.70
4604;DHT22;2314;48.272;11.562;2023-09-12T11:43:23;32.70;64.40
4604;DHT22;2314;48.272;11.562;2023-09-12T11:45:51;32.90;65.90
4604;DHT22;2314;48.272;11.562;2023-09-12T11:48:19;33.00;68.20
4604;DHT22;2314;48.272;11.562;2023-09-12T11:50:52;33.40;65.00
4604;DHT22;2314;48.272;11.562;2023-09-12T11:53:21;33.80;61.90
4604;DHT22;2314;48.272;11.562;2023-09-12T11:55:53;33.90;62.00
4604;DHT22;2314;48.272;11.562;2023-09-12T11:58:21;33.90;61.70
4604;DHT22;2314;48.272;11.562;2023-09-12T12:00:50;33.50;61.60
4604;DHT22;2314;48.272;11.562;2023-09-12T12:03:19;33.10;61.10
4604;DHT22;2314;48.272;11.562;2023-09-12T12:05:48;32.70;68.80
4604;DHT22;2314;48.272;11.562;2023-09-12T12:08:17;32.30;70.50
4604;DHT22;2314;48.272;11.562;2023-09-12T12:10:49;32.20;72.00
4604;DHT22;2314;48.272;11.562;2023-09-12T12:13:16;32.40;64.20
4604;DHT22;2314;48.272;11.562;2023-09-12T12:15:44;32.70;62.70
4604;DHT22;2314;48.272;11.562;2023-09-12T12:18:11;32.90;61.00
4604;DHT22;2314;48.272;11.562;2023-09-12T12:20:38;33.00;60.80
4604;DHT22;2314;48.272;11.562;2023-09-12T12:23:06;33.00;59.30
4604;DHT22;2314;48.272;11.562;2023-09-12T12:25:34;33.10;65.50
4604;DHT22;2314;48.272;11.562;2023-09-12T12:28:01;33.30;63.70
4604;DHT22;2314;48.272;11.562;2023-09-12T12:30:31;33.60;61.40
4604;DHT22;2314;48.272;11.562;2023-09-12T12:33:00;33.60;60.50
4604;DHT22;2314;48.272;11.562;2023-09-12T12:35:28;33.50;62.10
4604;DHT22;2314;48.272;11.562;2023-09-12T12:37:56;33.30;61.30
4604;DHT22;2314;48.272;11.562;2023-09-12T12:40:25;33.00;61.40
4604;DHT22;2314;48.272;11.562;2023-09-12T12:42:52;33.00;64.10
4604;DHT22;2314;48.272;11.562;2023-09-12T12:45:20;32.80;63.40
4604;DHT22;2314;48.272;11.562;2023-09-12T12:47:51;32.90;62.60
4604;DHT22;2314;48.272;11.562;2023-09-12T12:50:25;33.10;66.90
4604;DHT22;2314;48.272;11.562;2023-09-12T12:52:52;33.20;61.00
4604;DHT22;2314;48.272;11.562;2023-09-12T12:55:20;33.40;56.30
4604;DHT22;2314;48.272;11.562;2023-09-12T12:57:49;33.40;56.00
4604;DHT22;2314;48.272;11.562;2023-09-12T13:00:17;33.40;55.70
4604;DHT22;2314;48.272;11.562;2023-09-12T13:02:45;33.40;60.60
4604;DHT22;2314;48.272;11.562;2023-09-12T13:05:21;33.20;56.60
4604;DHT22;2314;48.272;11.562;2023-09-12T13:07:53;33.00;54.00
4604;DHT22;2314;48.272;11.562;2023-09-12T13:10:21;32.80;58.10
4604;DHT22;2314;48.272;11.562;2023-09-12T13:12:50;32.70;66.60
4604;DHT22;2314;48.272;11.562;2023-09-12T13:15:17;32.70;59.10
4604;DHT22;2314;48.272;11.562;2023-09-12T13:17:45;32.70;58.20
4604;DHT22;2314;48.272;11.562;2023-09-12T13:20:12;33.00;67.70
4604;DHT22;2314;48.272;11.562;2023-09-12T13:22:39;33.20;60.50
4604;DHT22;2314;48.272;11.562;2023-09-12T13:25:09;33.20;62.80
4604;DHT22;2314;48.272;11.562;2023-09-12T13:27:36;33.30;65.30
4604;DHT22;2314;48.272;11.562;2023-09-12T13:30:06;33.20;59.60
4604;DHT22;2314;48.272;11.562;2023-09-12T13:32:34;32.90;59.80
4604;DHT22;2314;48.272;11.562;2023-09-12T13:35:01;32.80;64.80
4604;DHT22;2314;48.272;11.562;2023-09-12T13:37:28;32.80;60.60
4604;DHT22;2314;48.272;11.562;2023-09-12T13:39:56;32.80;58.00
4604;DHT22;2314;48.272;11.562;2023-09-12T13:42:24;32.50;55.70
4604;DHT22;2314;48.272;11.562;2023-09-12T13:44:56;32.50;59.10
4604;DHT22;2314;48.272;11.562;2023-09-12T13:47:24;32.40;64.30
4604;DHT22;2314;48.272;11.562;2023-09-12T13:49:51;32.30;65.20
4604;DHT22;2314;48.272;11.562;2023-09-12T13:52:19;32.50;65.50
4604;DHT22;2314;48.272;11.562;2023-09-12T13:54:46;32.50;62.80
4604;DHT22;2314;48.272;11.562;2023-09-12T13:57:13;32.50;67.10
4604;DHT22;2314;48.272;11.562;2023-09-12T13:59:40;32.40;61.20
4604;DHT22;2314;48.272;11.562;2023-09-12T14:02:07;32.30;59.50
4604;DHT22;2314;48.272;11.562;2023-09-12T14:04:36;32.20;64.10
4604;DHT22;2314;48.272;11.562;2023-09-12T14:07:03;32.10;70.90
4604;DHT22;2314;48.272;11.562;2023-09-12T14:09:30;31.90;69.50
4604;DHT22;2314;48.272;11.562;2023-09-12T14:11:57;31.70;65.50
4604;DHT22;2314;48.272;11.562;2023-09-12T14:14:24;31.40;61.40
4604;DHT22;2314;48.272;11.562;2023-09-12T14:16:51;31.10;66.00
4604;DHT22;2314;48.272;11.562;2023-09-12T14:19:18;31.10;68.60
4604;DHT22;2314;48.272;11.562;2023-09-12T14:21:46;31.10;69.20
4604;DHT22;2314;48.272;11.562;2023-09-12T14:24:13;31.00;64.30
4604;DHT22;2314;48.272;11.562;2023-09-12T14:26:40;31.00;64.80
4604;DHT22;2314;48.272;11.562;2023-09-12T14:29:07;31.10;62.60
4604;DHT22;2314;48.272;11.562;2023-09-12T14:31:35;31.20;65.20
4604;DHT22;2314;48.272;11.562;2023-09-12T14:34:03;31.20;66.10
4604;DHT22;2314;48.272;11.562;2023-09-12T14:36:31;31.10;73.40
4604;DHT22;2314;48.272;11.562;2023-09-12T14:39:00;31.00;73.00
4604;DHT22;2314;48.272;11.562;2023-09-12T14:41:27;30.80;74.70
4604;DHT22;2314;48.272;11.562;2023-09-12T14:43:54;30.60;72.60
4604;DHT22;2314;48.272;11.562;2023-09-12T14:46:21;30.40;80.20
4604;DHT22;2314;48.272;11.562;2023-09-12T14:48:48;30.20;75.10
4604;DHT22;2314;48.272;11.562;2023-09-12T14:51:15;29.90;75.60
4604;DHT22;2314;48.272;11.562;2023-09-12T14:53:42;29.70;75.30
4604;DHT22;2314;48.272;11.562;2023-09-12T14:56:13;29.70;78.80
4604;DHT22;2314;48.272;11.562;2023-09-12T14:58:40;29.70;76.20
4604;DHT22;2314;48.272;11.562;2023-09-12T15:01:07;29.70;75.90
4604;DHT22;2314;48.272;11.562;2023-09-12T15:03:34;29.80;76.40
4604;DHT22;2314;48.272;11.562;2023-09-12T15:06:04;30.00;76.40
4604;DHT22;2314;48.272;11.562;2023-09-12T15:08:32;30.10;80.90
4604;DHT22;2314;48.272;11.562;2023-09-12T15:11:01;30.20;78.90
4604;DHT22;2314;48.272;11.562;2023-09-12T15:13:31;30.30;80.60
4604;DHT22;2314;48.272;11.562;2023-09-12T15:15:58;30.40;78.50
4604;DHT22;2314;48.272;11.562;2023-09-12T15:18:25;30.30;73.00
4604;DHT22;2314;48.272;11.562;2023-09-12T15:20:52;30.10;72.80
4604;DHT22;2314;48.272;11.562;2023-09-12T15:23:20;30.00;71.70
4604;DHT22;2314;48.272;11.562;2023-09-12T15:25:48;29.90;80.60
4604;DHT22;2314;48.272;11.562;2023-09-12T15:28:15;29.80;80.20
4604;DHT22;2314;48.272;11.562;2023-09-12T15:30:44;29.80;79.50
4604;DHT22;2314;48.272;11.562;2023-09-12T15:33:11;29.70;77.90
4604;DHT22;2314;48.272;11.562;2023-09-12T15:35:38;29.60;78.80
4604;DHT22;2314;48.272;11.562;2023-09-12T15:38:05;29.50;83.50
4604;DHT22;2314;48.272;11.562;2023-09-12T15:40:32;29.30;84.00
4604;DHT22;2314;48.272;11.562;2023-09-12T15:42:59;29.20;83.20
4604;DHT22;2314;48.272;11.562;2023-09-12T15:45:27;29.10;84.80
4604;DHT22;2314;48.272;11.562;2023-09-12T15:47:56;29.00;80.40
4604;DHT22;2314;48.272;11.562;2023-09-12T15:50:23;28.80;85.80
4604;DHT22;2314;48.272;11.562;2023-09-12T15:52:50;28.70;86.20
4604;DHT22;2314;48.272;11.562;2023-09-12T15:55:17;28.40;86.50